Time;durP1;ratioP1;P1;durP2;ratioP2;P2;SDS_P1;SDS_P2;PMS_P1;PMS_P2;Temp;Humidity;BMP_temperature;BMP_pressure;BME280_temperature;BME280_humidity;BME280_pressure;Samples;Min_cycle;Max_cycle;Signal;HPM_P1;HPM_P2
2022/06/13 00:01:23;;;;;;;13.07;3.13;;;;;;;12.56;73.50;101982.75;4989131;28;20037;-70
2022/06/13 00:03:50;;;;;;;8.50;3.22;;;;;;;12.53;73.16;101978.34;4994411;28;20037;-70
2022/06/13 00:06:15;;;;;;;8.60;2.65;;;;;;;12.49;74.00;101971.31;5009970;28;20042;-69
2022/06/13 00:08:41;;;;;;;7.13;2.80;;;;;;;12.45;74.11;101980.69;4986895;28;20513;-70
2022/06/13 00:11:09;;;;;;;4.82;2.53;;;;;;;12.42;74.08;101961.78;4984649;28;20038;-69
2022/06/13 00:13:36;;;;;;;7.72;2.90;;;;;;;12.39;74.09;101960.09;5003826;28;20070;-70
2022/06/13 00:16:03;;;;;;;5.88;2.50;;;;;;;12.37;74.86;101969.38;4987867;28;20080;-69
2022/06/13 00:18:28;;;;;;;4.88;3.22;;;;;;;12.37;74.19;101970.25;4998065;28;20062;-68
2022/06/13 00:20:54;;;;;;;5.15;2.65;;;;;;;12.36;74.33;101964.91;5008304;28;20076;-69
2022/06/13 00:23:20;;;;;;;5.95;2.60;;;;;;;12.32;74.77;101955.16;4994845;28;20148;-69
2022/06/13 00:25:45;;;;;;;5.88;2.25;;;;;;;12.31;74.34;101961.53;4988934;28;20035;-69
2022/06/13 00:28:11;;;;;;;5.55;2.70;;;;;;;12.30;74.43;101959.81;4987789;28;20042;-69
2022/06/13 00:30:37;;;;;;;4.60;3.17;;;;;;;12.31;74.98;101958.81;4984960;28;20053;-69
2022/06/13 00:33:03;;;;;;;5.35;3.10;;;;;;;12.32;75.64;101963.34;4988686;28;20069;-69
2022/06/13 00:35:28;;;;;;;10.57;3.47;;;;;;;12.34;75.72;101958.63;4988460;28;20058;-69
2022/06/13 00:37:53;;;;;;;8.13;3.42;;;;;;;12.33;75.35;101954.16;4990570;28;20049;-70
2022/06/13 00:40:19;;;;;;;7.28;3.08;;;;;;;12.39;75.99;101961.97;4994521;28;20030;-69
2022/06/13 00:42:46;;;;;;;8.80;2.78;;;;;;;12.41;75.57;101954.56;4989126;28;20052;-70
2022/06/13 00:45:20;;;;;;;6.63;3.00;;;;;;;12.41;75.66;101947.25;4993930;28;20398;-70
2022/06/13 00:47:48;;;;;;;8.77;2.97;;;;;;;12.43;75.62;101945.28;4989709;28;20038;-70
2022/06/13 00:50:55;;;;;;;6.32;3.17;;;;;;;12.49;74.49;101952.22;4987734;28;20038;-70
2022/06/13 00:53:30;;;;;;;6.50;2.83;;;;;;;12.51;75.95;101942.97;4988142;28;20133;-69
2022/06/13 00:56:01;;;;;;;3.88;2.88;;;;;;;12.57;76.23;101940.81;4987661;28;20034;-70
2022/06/13 00:58:30;;;;;;;8.48;3.50;;;;;;;12.59;76.44;101945.22;4969652;28;22293;-69
2022/06/13 01:00:57;;;;;;;11.23;3.67;;;;;;;12.62;76.34;101938.69;4994785;28;20893;-70
2022/06/13 01:03:26;;;;;;;4.45;2.75;;;;;;;12.68;76.67;101943.75;4971430;28;20038;-69
2022/06/13 01:05:54;;;;;;;5.88;3.15;;;;;;;12.72;76.34;101937.97;5007709;28;20078;-70
2022/06/13 01:08:22;;;;;;;10.02;3.00;;;;;;;12.76;76.64;101942.28;5008151;28;20026;-68
2022/06/13 01:13:37;;;;;;;5.38;3.55;;;;;;;12.87;76.40;101938.88;4987034;28;20034;-70
2022/06/13 01:16:24;;;;;;;6.35;3.45;;;;;;;12.88;75.69;101937.91;4986863;28;20060;-70
2022/06/13 01:19:11;;;;;;;7.68;3.28;;;;;;;12.92;75.68;101935.84;4970422;28;20045;-68
2022/06/13 01:21:52;;;;;;;9.68;3.80;;;;;;;12.92;75.72;101934.00;4970206;28;20069;-70
2022/06/13 01:24:36;;;;;;;7.90;3.75;;;;;;;12.90;76.49;101930.47;4988787;28;20034;-70
2022/06/13 01:27:29;;;;;;;8.43;4.10;;;;;;;12.94;75.67;101934.75;4988159;28;20042;-70
2022/06/13 01:30:12;;;;;;;7.82;3.58;;;;;;;12.89;76.64;101936.91;4986243;28;20112;-70
2022/06/13 01:32:56;;;;;;;8.02;4.65;;;;;;;12.89;76.71;101939.66;4987250;28;20380;-70
2022/06/13 01:36:15;;;;;;;5.95;4.10;;;;;;;12.95;75.47;101946.56;5003295;28;20076;-69
2022/06/13 01:39:16;;;;;;;10.25;4.43;;;;;;;12.98;75.46;101922.66;4908550;29;20167;-70
2022/06/13 01:42:20;;;;;;;7.45;4.20;;;;;;;13.00;75.91;101930.75;4987362;28;20150;-71
2022/06/13 01:45:13;;;;;;;10.23;4.28;;;;;;;12.99;76.75;101920.81;4987070;28;20125;-70
2022/06/13 01:47:59;;;;;;;7.70;4.55;;;;;;;12.97;76.55;101912.72;4969556;28;20045;-70
2022/06/13 01:50:52;;;;;;;11.00;4.40;;;;;;;12.98;77.10;101911.72;4997284;28;20117;-70
2022/06/13 01:53:36;;;;;;;8.63;4.93;;;;;;;13.00;76.27;101917.97;5007972;28;20481;-69
2022/06/13 01:56:10;;;;;;;11.68;4.72;;;;;;;13.06;77.55;101924.91;4984392;28;20085;-69
2022/06/13 01:58:44;;;;;;;9.18;4.57;;;;;;;13.11;76.74;101930.06;4986576;28;20033;-69
2022/06/13 02:01:22;;;;;;;9.40;4.20;;;;;;;13.17;77.48;101941.44;4985917;28;20035;-69
2022/06/13 02:03:52;;;;;;;9.27;4.18;;;;;;;13.16;79.03;101926.03;4992077;28;20038;-69
2022/06/13 02:06:36;;;;;;;9.88;4.28;;;;;;;13.20;77.02;101933.06;5007720;28;20055;-70
2022/06/13 02:09:06;;;;;;;10.45;4.00;;;;;;;13.21;79.47;101928.47;4985064;28;20037;-70
2022/06/13 02:11:39;;;;;;;10.15;4.63;;;;;;;13.23;79.97;101930.13;4986883;28;20034;-69
2022/06/13 02:14:16;;;;;;;8.68;4.03;;;;;;;13.25;78.64;101930.06;4986486;28;20111;-69
2022/06/13 02:16:51;;;;;;;9.13;4.15;;;;;;;13.30;78.94;101937.94;4986374;28;20030;-69
2022/06/13 02:19:19;;;;;;;12.38;4.18;;;;;;;13.37;79.62;101944.75;4987516;28;20133;-69
2022/06/13 02:21:58;;;;;;;13.75;4.63;;;;;;;13.40;79.48;101937.22;4988175;28;20078;-69
2022/06/13 02:24:31;;;;;;;8.23;5.15;;;;;;;13.42;80.68;101939.84;4998451;28;20042;-69
2022/06/13 02:26:59;;;;;;;12.07;4.95;;;;;;;13.46;78.17;101942.28;5010431;28;20034;-69
2022/06/13 02:29:37;;;;;;;14.63;6.75;;;;;;;13.47;78.25;101933.09;4999195;28;20539;-69
2022/06/13 02:32:11;;;;;;;14.88;5.13;;;;;;;13.49;76.90;101922.94;4990363;28;20609;-69
2022/06/13 02:34:42;;;;;;;21.95;6.88;;;;;;;13.52;77.87;101930.03;5001490;28;20034;-69
2022/06/13 02:37:16;;;;;;;13.70;5.65;;;;;;;13.49;77.38;101916.59;5006369;28;20066;-69
2022/06/13 02:40:03;;;;;;;11.25;6.03;;;;;;;13.50;76.43;101912.88;4990587;28;20165;-69
2022/06/13 02:42:39;;;;;;;12.10;5.35;;;;;;;13.50;77.07;101915.63;4991011;28;20458;-69
2022/06/13 02:45:20;;;;;;;10.52;5.65;;;;;;;13.49;77.37;101925.69;4971650;28;20066;-69
2022/06/13 02:48:01;;;;;;;12.15;5.70;;;;;;;13.47;77.60;101926.75;5004498;28;20091;-69
2022/06/13 02:50:58;;;;;;;13.43;6.43;;;;;;;13.45;77.46;101923.25;4999627;28;20034;-69
2022/06/13 02:53:27;;;;;;;15.02;6.18;;;;;;;13.37;77.70;101921.03;4990648;28;20552;-69
2022/06/13 02:56:26;;;;;;;15.48;5.60;;;;;;;13.36;76.85;101922.00;4989631;28;20462;-69
2022/06/13 02:59:17;;;;;;;11.98;5.75;;;;;;;13.37;76.80;101922.88;4989304;28;20049;-69
2022/06/13 03:01:47;;;;;;;11.52;5.43;;;;;;;13.30;77.75;101916.97;4989168;28;20065;-70
2022/06/13 03:04:33;;;;;;;16.05;7.32;;;;;;;13.26;76.75;101916.28;4998054;28;20082;-69
2022/06/13 03:07:03;;;;;;;17.58;6.10;;;;;;;13.24;77.40;101921.00;5010088;28;20029;-69
2022/06/13 03:09:40;;;;;;;15.60;6.85;;;;;;;13.21;77.93;101915.69;4987974;28;20160;-69
2022/06/13 03:12:14;;;;;;;12.38;6.63;;;;;;;13.22;77.20;101922.06;4990130;28;20038;-70
2022/06/13 03:14:56;;;;;;;17.38;6.22;;;;;;;13.19;78.09;101914.88;4989075;28;20675;-69
2022/06/13 03:17:51;;;;;;;13.57;6.32;;;;;;;13.21;77.39;101917.53;4989306;28;20038;-69
2022/06/13 03:20:39;;;;;;;19.13;6.90;;;;;;;13.20;77.71;101922.13;4988215;28;20054;-69
2022/06/13 03:23:12;;;;;;;18.65;6.93;;;;;;;13.21;77.59;101925.75;4989944;28;20474;-69
2022/06/13 03:25:43;;;;;;;24.52;6.70;;;;;;;13.21;77.99;101917.53;4989370;28;20064;-70
2022/06/13 03:28:19;;;;;;;16.48;6.38;;;;;;;13.23;77.40;101929.25;4989573;28;20040;-69
2022/06/13 03:31:05;;;;;;;13.40;6.30;;;;;;;13.21;77.64;101923.00;4988515;28;20042;-69
2022/06/13 03:33:43;;;;;;;20.30;6.72;;;;;;;13.18;77.79;101924.06;4973771;28;20112;-70
2022/06/13 03:36:17;;;;;;;14.65;6.60;;;;;;;13.16;77.65;101930.63;4971810;28;20141;-69
2022/06/13 03:38:49;;;;;;;26.55;6.82;;;;;;;13.13;77.62;101931.69;4989637;28;20049;-70
2022/06/13 03:41:18;;;;;;;16.55;6.88;;;;;;;13.10;77.37;101937.34;4971711;28;20078;-69
2022/06/13 03:43:48;;;;;;;17.20;6.70;;;;;;;13.08;77.45;101941.19;4988899;28;20030;-69
2022/06/13 03:46:41;;;;;;;16.02;7.10;;;;;;;13.02;77.34;101940.59;4988160;28;20038;-70
2022/06/13 03:49:26;;;;;;;19.63;7.70;;;;;;;12.98;77.77;101936.31;4989109;28;20386;-69
2022/06/13 03:51:54;;;;;;;17.90;7.07;;;;;;;12.94;78.68;101939.34;4989035;28;20386;-69
2022/06/13 03:54:34;;;;;;;13.70;6.53;;;;;;;12.93;77.73;101943.94;4988826;28;20136;-69
2022/06/13 03:57:03;;;;;;;13.57;6.57;;;;;;;12.91;78.16;101945.88;4990775;28;20034;-69
2022/06/13 03:59:39;;;;;;;16.67;7.28;;;;;;;12.89;77.99;101950.56;4979333;28;20084;-69
2022/06/13 04:02:11;;;;;;;15.88;7.13;;;;;;;12.89;79.20;101961.50;4988130;28;20430;-69
2022/06/13 04:04:44;;;;;;;22.45;8.43;;;;;;;12.88;79.10;101950.69;4999848;28;20038;-69
2022/06/13 04:07:09;;;;;;;12.65;6.63;;;;;;;12.86;80.24;101952.63;5008618;28;20498;-69
2022/06/13 04:09:40;;;;;;;16.67;7.22;;;;;;;12.82;79.11;101954.66;4996979;28;20117;-69
2022/06/13 04:12:30;;;;;;;15.02;6.95;;;;;;;12.76;80.35;101958.66;4989054;28;20113;-69
2022/06/13 04:15:23;;;;;;;17.27;6.25;;;;;;;12.75;79.10;101956.03;4970234;28;20057;-69
2022/06/13 04:18:15;;;;;;;18.75;7.07;;;;;;;12.76;79.33;101955.94;4987739;28;20129;-69
2022/06/13 04:20:55;;;;;;;19.30;7.40;;;;;;;12.76;79.49;101963.25;4988794;28;20030;-69
2022/06/13 04:23:33;;;;;;;20.48;7.80;;;;;;;12.73;79.56;101956.16;4989259;28;20049;-68
2022/06/13 04:26:17;;;;;;;13.70;7.10;;;;;;;12.76;79.70;101955.06;4996564;28;20034;-69
2022/06/13 04:28:48;;;;;;;19.33;7.68;;;;;;;12.82;79.58;101964.72;4988095;28;20034;-69
2022/06/13 04:31:18;;;;;;;21.00;8.15;;;;;;;12.85;80.63;101968.13;4987593;28;20363;-69
2022/06/13 04:33:50;;;;;;;20.58;7.63;;;;;;;12.87;80.26;101971.66;4992440;28;20033;-69
2022/06/13 04:36:17;;;;;;;19.55;7.97;;;;;;;12.90;79.73;101967.84;5009087;28;20453;-69
2022/06/13 04:38:47;;;;;;;23.15;7.90;;;;;;;12.96;80.72;101967.44;4986838;28;20081;-70
2022/06/13 04:41:14;;;;;;;13.77;7.38;;;;;;;13.02;80.43;101973.38;4989063;28;20210;-70
2022/06/13 04:43:44;;;;;;;17.98;7.53;;;;;;;13.10;80.19;101975.59;4987795;28;20041;-69
2022/06/13 04:46:17;;;;;;;18.60;8.35;;;;;;;13.15;81.35;101969.84;4986427;28;20266;-69
2022/06/13 04:48:45;;;;;;;28.05;8.60;;;;;;;13.21;79.59;101980.38;4988638;28;20030;-69
2022/06/13 04:51:18;;;;;;;21.80;9.32;;;;;;;13.24;80.84;101975.66;4981704;28;20389;-69
2022/06/13 04:54:11;;;;;;;20.27;8.65;;;;;;;13.32;80.75;101976.97;4988534;28;20385;-69
2022/06/13 04:56:37;;;;;;;20.90;8.82;;;;;;;13.43;80.58;101980.78;5000785;28;20022;-69
2022/06/13 04:59:03;;;;;;;19.50;9.02;;;;;;;13.56;79.56;101978.06;5002183;28;20482;-69
2022/06/13 05:01:47;;;;;;;20.17;8.68;;;;;;;13.67;79.29;101983.72;5000778;28;20030;-69
2022/06/13 05:04:15;;;;;;;19.13;8.90;;;;;;;13.76;79.98;101983.09;5005902;28;20041;-69
2022/06/13 05:06:46;;;;;;;20.88;9.57;;;;;;;13.85;79.18;101983.44;5005542;28;20128;-69
2022/06/13 05:09:11;;;;;;;17.75;8.68;;;;;;;13.94;78.61;101989.19;4987626;28;20041;-69
2022/06/13 05:11:52;;;;;;;24.02;9.13;;;;;;;13.99;79.11;101989.75;5004602;28;20093;-69
2022/06/13 05:14:24;;;;;;;15.55;8.50;;;;;;;14.08;78.62;101990.94;5004501;28;20034;-69
2022/06/13 05:17:08;;;;;;;26.13;9.13;;;;;;;14.18;78.54;101992.09;4987429;28;20022;-68
2022/06/13 05:19:55;;;;;;;22.05;8.80;;;;;;;14.30;78.70;101996.69;5006723;28;20163;-69
2022/06/13 05:22:23;;;;;;;17.65;8.20;;;;;;;14.40;77.59;101998.78;5002110;28;20076;-69
2022/06/13 05:24:58;;;;;;;16.33;8.75;;;;;;;14.47;77.66;102000.13;4986195;28;20042;-69
2022/06/13 05:27:23;;;;;;;20.40;8.60;;;;;;;14.63;77.13;102002.66;5006592;28;20152;-69
2022/06/13 05:29:48;;;;;;;23.48;9.15;;;;;;;14.70;77.58;102009.47;5001351;28;20038;-69
2022/06/13 05:32:15;;;;;;;26.75;8.43;;;;;;;14.84;77.22;102008.50;5002864;28;20136;-69
2022/06/13 05:34:42;;;;;;;16.17;8.45;;;;;;;14.93;76.84;102010.56;5006336;28;20030;-70
2022/06/13 05:37:11;;;;;;;21.48;9.43;;;;;;;15.05;76.29;102013.28;5002192;28;20206;-69
2022/06/13 05:39:36;;;;;;;18.90;8.95;;;;;;;15.16;77.01;102014.38;5005888;28;20087;-69
2022/06/13 05:42:02;;;;;;;20.80;8.63;;;;;;;15.19;77.66;102019.63;4988522;28;20472;-69
2022/06/13 05:44:28;;;;;;;21.95;9.32;;;;;;;15.32;75.89;102020.47;5003228;28;20040;-69
2022/06/13 05:46:53;;;;;;;18.52;9.18;;;;;;;15.39;76.50;102018.16;5002437;28;20077;-70
2022/06/13 05:49:19;;;;;;;17.48;9.02;;;;;;;15.52;75.90;102035.44;5004092;28;20106;-69
2022/06/13 05:51:44;;;;;;;19.80;8.85;;;;;;;15.52;75.45;102029.97;4986997;28;20022;-70
2022/06/13 05:54:11;;;;;;;19.63;8.02;;;;;;;15.57;75.28;102030.50;5004896;28;20061;-70
2022/06/13 05:56:38;;;;;;;19.55;8.15;;;;;;;15.68;74.04;102027.00;5001939;28;20488;-69
2022/06/13 05:59:03;;;;;;;23.73;8.25;;;;;;;15.74;74.84;102032.03;5006738;28;20516;-69
2022/06/13 06:01:29;;;;;;;20.35;7.97;;;;;;;15.79;75.42;102036.16;4989498;28;20030;-70
2022/06/13 06:03:54;;;;;;;19.48;7.00;;;;;;;15.86;74.05;102036.59;5009865;28;20068;-70
2022/06/13 06:06:26;;;;;;;15.70;6.57;;;;;;;16.03;73.02;102038.91;4992845;28;20045;-69
2022/06/13 06:08:54;;;;;;;13.80;6.40;;;;;;;16.13;73.29;102043.69;5007279;28;20087;-69
2022/06/13 06:11:21;;;;;;;17.10;6.35;;;;;;;16.13;71.93;102046.44;5008808;28;20459;-68
2022/06/13 06:13:46;;;;;;;20.13;7.22;;;;;;;16.12;71.56;102056.56;5007803;28;20030;-70
2022/06/13 06:16:17;;;;;;;15.57;6.20;;;;;;;16.14;70.52;102062.81;5003853;28;20053;-69
2022/06/13 06:18:43;;;;;;;16.10;5.53;;;;;;;16.21;71.01;102060.47;5010107;28;20474;-69
2022/06/13 06:21:08;;;;;;;13.77;5.55;;;;;;;16.33;70.53;102065.91;5008914;28;20056;-70
2022/06/13 06:23:35;;;;;;;9.82;5.32;;;;;;;16.39;68.17;102066.41;5010051;28;20021;-70
2022/06/13 06:26:02;;;;;;;14.50;5.22;;;;;;;16.59;70.12;102074.84;5002966;28;20042;-69
2022/06/13 06:28:28;;;;;;;16.20;5.53;;;;;;;16.78;70.84;102073.44;4990259;28;20103;-70
2022/06/13 06:30:56;;;;;;;9.75;4.45;;;;;;;16.86;70.01;102070.09;5003085;28;20077;-70
2022/06/13 06:33:22;;;;;;;10.00;3.90;;;;;;;16.96;68.42;102074.72;5008693;28;20041;-70
2022/06/13 06:35:48;;;;;;;12.55;3.63;;;;;;;16.96;66.86;102069.22;5006930;28;20121;-70
2022/06/13 06:38:15;;;;;;;13.18;3.92;;;;;;;16.90;65.94;102074.34;5009989;28;20449;-70
2022/06/13 06:40:40;;;;;;;8.48;3.03;;;;;;;16.70;63.57;102084.13;5006969;28;20061;-70
2022/06/13 06:43:06;;;;;;;6.97;2.70;;;;;;;16.55;64.61;102072.44;5007497;28;20693;-70
2022/06/13 06:45:32;;;;;;;8.10;2.80;;;;;;;16.55;64.97;102084.34;5004214;28;20049;-69
2022/06/13 06:47:57;;;;;;;8.40;2.80;;;;;;;16.50;63.34;102086.53;4990542;28;20052;-71
2022/06/13 06:50:31;;;;;;;7.43;2.10;;;;;;;16.45;63.62;102087.91;4974386;28;20029;-69
2022/06/13 06:52:56;;;;;;;8.68;2.60;;;;;;;16.47;63.43;102088.69;4988948;28;20474;-70
2022/06/13 07:00:55;;;;;;;6.65;2.03;;;;;;;16.65;61.78;102094.63;5003171;28;20125;-69
2022/06/13 07:03:21;;;;;;;8.40;2.55;;;;;;;16.61;60.31;102096.72;5007918;28;20156;-70
2022/06/13 07:05:46;;;;;;;8.73;2.03;;;;;;;16.52;62.77;102101.06;4991761;28;20088;-70
2022/06/13 07:08:14;;;;;;;6.20;2.00;;;;;;;16.47;62.26;102096.91;4999927;28;20042;-70
2022/06/13 07:10:39;;;;;;;6.30;2.58;;;;;;;16.35;61.04;102095.09;4989077;28;20045;-71
2022/06/13 07:13:05;;;;;;;5.78;1.83;;;;;;;16.32;62.12;102091.63;4989858;28;20042;-72
2022/06/13 07:15:30;;;;;;;10.13;2.35;;;;;;;16.23;63.47;102095.06;4988834;28;20038;-72
2022/06/13 07:17:55;;;;;;;6.45;2.60;;;;;;;16.29;63.94;102096.47;5001799;28;20092;-70
2022/06/13 07:20:21;;;;;;;7.10;2.33;;;;;;;16.25;61.58;102098.56;5008659;28;20026;-70
2022/06/13 07:22:52;;;;;;;7.43;2.20;;;;;;;16.32;62.05;102098.97;5010189;28;20124;-70
2022/06/13 07:25:25;;;;;;;6.97;2.50;;;;;;;16.51;63.06;102099.31;4988249;28;20121;-71
2022/06/13 07:27:51;;;;;;;6.32;2.30;;;;;;;16.86;63.68;102098.44;4990050;28;20121;-71
2022/06/13 07:30:19;;;;;;;9.38;2.95;;;;;;;17.09;62.60;102094.75;4991014;28;20145;-69
2022/06/13 07:32:45;;;;;;;8.50;2.00;;;;;;;17.26;61.91;102101.66;4989331;28;20474;-70
2022/06/13 07:35:13;;;;;;;7.97;2.17;;;;;;;17.39;62.74;102107.00;5001186;28;20666;-71
2022/06/13 07:40:24;;;;;;;5.75;2.30;;;;;;;17.57;60.52;102105.50;4994073;28;20113;-69
2022/06/13 07:42:55;;;;;;;6.80;2.33;;;;;;;17.61;59.21;102103.38;4972442;28;20438;-69
2022/06/13 07:45:24;;;;;;;7.35;2.10;;;;;;;17.47;57.77;102112.75;4988443;28;20042;-70
2022/06/13 07:47:50;;;;;;;9.45;2.42;;;;;;;17.46;60.76;102111.03;4989153;28;20459;-69
2022/06/13 07:50:20;;;;;;;6.68;2.47;;;;;;;17.50;60.18;102117.16;4989896;28;20425;-71
2022/06/13 07:52:49;;;;;;;7.43;2.50;;;;;;;17.45;60.45;102117.53;5002831;28;20040;-71
2022/06/13 07:55:16;;;;;;;10.77;2.55;;;;;;;17.36;60.45;102122.91;4986313;28;20066;-71
2022/06/13 07:57:42;;;;;;;8.43;2.30;;;;;;;17.27;61.99;102122.63;4989006;28;20068;-70
2022/06/13 08:00:12;;;;;;;10.02;2.50;;;;;;;17.14;59.72;102127.38;4987797;28;20049;-70
2022/06/13 08:02:38;;;;;;;8.52;2.20;;;;;;;17.17;59.80;102118.00;4988372;28;20542;-70
2022/06/13 08:05:04;;;;;;;11.13;2.30;;;;;;;17.25;60.19;102124.66;5002766;28;20569;-70
2022/06/13 08:07:30;;;;;;;9.15;2.50;;;;;;;17.83;62.70;102127.31;4987702;28;20030;-70
2022/06/13 08:09:55;;;;;;;7.40;2.35;;;;;;;18.53;59.52;102134.25;5004996;28;20044;-71
2022/06/13 08:12:21;;;;;;;9.27;2.15;;;;;;;18.77;54.29;102136.81;5007299;28;20108;-70
2022/06/13 08:14:48;;;;;;;9.77;2.40;;;;;;;19.24;58.42;102140.03;4986230;28;20402;-70
2022/06/13 08:17:15;;;;;;;5.72;2.38;;;;;;;19.74;55.44;102142.97;4988234;28;20082;-72
2022/06/13 08:19:40;;;;;;;7.25;2.40;;;;;;;20.08;54.64;102144.38;4986583;28;20505;-70
2022/06/13 08:22:05;;;;;;;7.60;2.30;;;;;;;20.10;53.78;102150.66;4973555;28;20115;-70
2022/06/13 08:24:31;;;;;;;8.68;2.25;;;;;;;20.09;56.44;102151.63;4998646;28;20041;-71
2022/06/13 08:26:56;;;;;;;7.53;2.15;;;;;;;20.35;53.36;102152.00;5005635;28;20034;-71
2022/06/13 08:29:21;;;;;;;6.57;1.90;;;;;;;19.98;50.96;102151.75;4998827;28;20034;-70
2022/06/13 08:31:47;;;;;;;6.00;1.92;;;;;;;19.68;51.63;102158.19;5001949;28;20022;-71
2022/06/13 08:34:12;;;;;;;9.90;2.17;;;;;;;19.54;55.41;102151.13;5006560;28;20040;-70
2022/06/13 08:36:38;;;;;;;6.95;1.90;;;;;;;19.61;54.69;102163.38;5008275;28;20038;-71
2022/06/13 08:39:03;;;;;;;6.38;2.10;;;;;;;19.77;52.76;102154.59;5000673;28;20145;-70
2022/06/13 08:41:50;;;;;;;10.05;1.80;;;;;;;19.95;52.60;102160.31;4988137;28;20042;-71
2022/06/13 08:44:43;;;;;;;6.20;2.15;;;;;;;20.30;54.38;102168.13;4997212;28;20040;-71
2022/06/13 08:47:23;;;;;;;5.28;1.48;;;;;;;20.62;51.62;102158.75;4994357;28;20045;-70
2022/06/13 08:50:16;;;;;;;7.97;1.80;;;;;;;20.58;53.06;102163.69;5002788;28;20482;-71
2022/06/13 08:52:50;;;;;;;6.65;1.80;;;;;;;21.15;52.10;102169.34;5005410;28;20038;-71
2022/06/13 08:55:24;;;;;;;5.55;1.77;;;;;;;21.18;49.50;102170.97;5000621;28;20467;-71
2022/06/13 08:58:14;;;;;;;4.95;1.63;;;;;;;21.15;48.36;102163.81;5000820;28;20421;-72
2022/06/13 09:00:46;;;;;;;5.80;1.80;;;;;;;20.83;45.55;102176.06;4995453;28;20068;-70
2022/06/13 09:03:18;;;;;;;4.55;1.50;;;;;;;20.63;48.77;102172.44;4988654;28;20031;-70
2022/06/13 09:05:56;;;;;;;;;;;;;;;20.53;48.84;102178.97;5003348;28;20129;-71
2022/06/13 09:08:27;;;;;;;4.72;1.58;;;;;;;19.87;50.50;102176.75;5003235;28;19913;-72
2022/06/13 09:11:38;;;;;;;5.40;1.60;;;;;;;19.88;50.95;102184.00;4997746;28;20030;-71
2022/06/13 09:14:30;;;;;;;4.40;1.50;;;;;;;19.64;52.91;102189.84;4998729;28;20683;-71
2022/06/13 09:17:07;;;;;;;8.93;2.07;;;;;;;19.49;51.56;102189.31;5002051;28;20477;-71
2022/06/13 09:19:40;;;;;;;3.90;1.88;;;;;;;19.60;52.11;102197.53;5005956;28;20391;-71
2022/06/13 09:22:18;;;;;;;5.70;1.40;;;;;;;20.02;52.12;102199.31;5006166;28;20347;-71
2022/06/13 09:24:54;;;;;;;7.05;1.55;;;;;;;20.49;52.13;102192.22;5001529;28;20781;-69
2022/06/13 09:27:27;;;;;;;4.32;1.23;;;;;;;20.48;51.22;102193.25;5003025;28;20046;-70
2022/06/13 09:30:11;;;;;;;6.00;1.45;;;;;;;20.68;52.32;102201.56;4998129;28;20173;-71
2022/06/13 09:32:47;;;;;;;5.25;1.45;;;;;;;20.57;49.89;102199.81;4991617;28;20037;-71
2022/06/13 09:35:17;;;;;;;7.00;1.48;;;;;;;20.70;49.47;102200.38;5003100;28;20037;-70
2022/06/13 09:37:53;;;;;;;4.65;1.45;;;;;;;20.57;50.33;102208.09;5005307;28;20041;-71
2022/06/13 09:40:26;;;;;;;3.72;1.50;;;;;;;20.70;50.13;102203.13;5004942;28;20544;-71
2022/06/13 09:42:57;;;;;;;11.45;1.90;;;;;;;20.98;49.24;102211.59;5004853;28;20120;-71
2022/06/13 09:45:34;;;;;;;8.32;1.40;;;;;;;20.98;48.88;102211.59;4983077;28;20029;-71
2022/06/13 09:48:30;;;;;;;2.55;1.38;;;;;;;20.92;49.53;102213.06;4999770;28;20065;-71
2022/06/13 09:51:06;;;;;;;4.85;1.23;;;;;;;21.11;47.74;102212.19;5002139;28;20160;-72
2022/06/13 09:53:57;;;;;;;3.97;1.30;;;;;;;21.44;48.02;102218.28;4985478;28;20030;-72
2022/06/13 09:56:47;;;;;;;7.75;1.52;;;;;;;21.50;48.36;102207.50;4986191;28;20398;-72
2022/06/13 09:59:37;;;;;;;3.63;1.23;;;;;;;21.61;48.30;102199.03;4986972;28;20062;-70
2022/06/13 10:02:17;;;;;;;7.20;1.30;;;;;;;21.28;46.58;102219.75;4997602;28;20144;-71
2022/06/13 10:04:55;;;;;;;3.75;1.10;;;;;;;20.98;49.43;102226.31;4998464;28;20037;-70
2022/06/13 10:07:27;;;;;;;3.95;1.13;;;;;;;20.95;46.50;102229.38;5002443;28;20061;-70
2022/06/13 10:10:11;;;;;;;3.85;1.30;;;;;;;21.64;48.00;102220.88;4997796;28;20516;-70
2022/06/13 10:12:57;;;;;;;4.25;1.25;;;;;;;21.78;45.49;102221.44;5001386;28;20030;-71
2022/06/13 10:15:45;;;;;;;5.65;1.40;;;;;;;21.27;44.19;102223.56;4998532;28;20037;-71
2022/06/13 10:18:31;;;;;;;4.03;1.17;;;;;;;21.42;47.27;102224.00;4997547;28;20095;-70
2022/06/13 10:21:09;;;;;;;2.72;1.20;;;;;;;21.67;44.46;102221.59;5004006;28;20540;-71
2022/06/13 10:23:58;;;;;;;4.80;1.13;;;;;;;21.33;44.94;102230.41;5001296;28;20527;-71
2022/06/13 10:26:39;;;;;;;4.57;1.65;;;;;;;20.98;45.50;102228.19;4999180;28;20473;-71
2022/06/13 10:29:28;;;;;;;8.50;1.45;;;;;;;20.76;47.44;102229.38;5000442;28;20137;-71
2022/06/13 10:32:10;;;;;;;5.75;1.45;;;;;;;20.49;47.75;102236.44;4997932;28;20685;-70
2022/06/13 10:35:06;;;;;;;6.53;1.30;;;;;;;20.31;48.83;102230.69;5004015;28;20041;-70
2022/06/13 10:37:51;;;;;;;4.30;1.15;;;;;;;20.15;49.42;102240.53;5005577;28;20489;-69
2022/06/13 10:40:17;;;;;;;6.25;1.30;;;;;;;20.36;49.64;102230.25;5005332;28;20045;-69
2022/06/13 10:42:43;;;;;;;6.70;1.70;;;;;;;20.67;50.34;102233.00;4989406;28;20132;-70
2022/06/13 10:45:12;;;;;;;5.55;1.42;;;;;;;21.21;48.11;102235.19;4995357;28;20034;-70
2022/06/13 10:47:55;;;;;;;6.45;1.30;;;;;;;21.54;48.23;102225.59;4990327;28;20069;-71
2022/06/13 10:50:58;;;;;;;4.35;1.60;;;;;;;21.95;47.13;102225.28;4990149;28;20104;-71
2022/06/13 10:53:47;;;;;;;4.75;1.40;;;;;;;21.70;47.04;102235.16;4991018;28;20049;-72
2022/06/13 10:56:21;;;;;;;7.63;1.40;;;;;;;21.58;46.13;102231.69;4990481;28;20038;-71
2022/06/13 10:58:54;;;;;;;5.90;1.55;;;;;;;21.51;46.19;102231.41;4990465;28;20060;-70
2022/06/13 11:01:28;;;;;;;5.38;1.40;;;;;;;21.11;46.54;102229.66;4990224;28;20035;-68
2022/06/13 11:04:00;;;;;;;4.75;1.45;;;;;;;21.45;47.02;102229.25;5002995;28;20052;-71
2022/06/13 11:06:33;;;;;;;5.70;1.23;;;;;;;21.95;45.01;102228.06;4994051;28;20042;-71
2022/06/13 11:09:01;;;;;;;5.78;1.48;;;;;;;22.08;45.31;102220.28;4991009;28;20108;-72
2022/06/13 11:11:44;;;;;;;3.42;1.25;;;;;;;22.18;44.62;102225.81;4990286;28;20035;-71
2022/06/13 11:14:32;;;;;;;11.32;2.10;;;;;;;22.71;46.71;102234.28;4989259;28;20062;-71
2022/06/13 11:22:40;;;;;;;5.93;1.52;;;;;;;23.13;37.32;102234.56;4989930;28;20042;-70
2022/06/13 11:25:29;;;;;;;2.70;1.30;;;;;;;22.87;43.67;102233.56;4989248;28;22152;-71
2022/06/13 11:28:07;;;;;;;3.75;1.65;;;;;;;22.70;39.83;102242.72;4989773;28;20050;-71
2022/06/13 11:30:37;;;;;;;5.07;1.42;;;;;;;22.58;41.70;102237.41;4993994;28;20080;-71
2022/06/13 11:33:07;;;;;;;2.75;1.00;;;;;;;22.38;40.09;102231.13;5006536;28;20057;-71
2022/06/13 11:35:54;;;;;;;3.05;1.30;;;;;;;22.23;40.67;102234.53;5008656;28;20371;-71
2022/06/13 11:38:19;;;;;;;5.75;1.42;;;;;;;21.73;42.83;102243.16;5009623;28;20497;-68
2022/06/13 11:40:48;;;;;;;4.22;1.50;;;;;;;21.15;43.68;102233.88;5001755;28;20066;-70
2022/06/13 11:43:30;;;;;;;3.08;1.13;;;;;;;21.07;46.79;102253.09;4989652;28;20025;-71
2022/06/13 11:45:59;;;;;;;3.38;1.60;;;;;;;21.44;42.65;102241.31;4995606;28;20042;-70
2022/06/13 11:48:26;;;;;;;3.45;1.42;;;;;;;21.46;45.81;102239.28;5006972;28;20742;-70
2022/06/13 11:51:00;;;;;;;6.32;1.50;;;;;;;21.85;48.21;102226.19;5008364;28;20038;-70
2022/06/13 11:53:35;;;;;;;6.13;1.42;;;;;;;22.15;43.99;102232.56;5004371;28;20034;-70
2022/06/13 11:56:04;;;;;;;7.72;1.40;;;;;;;22.89;48.91;102231.50;5003958;28;20405;-71
2022/06/13 11:58:37;;;;;;;4.40;1.58;;;;;;;23.43;41.69;102227.69;5006823;28;20504;-69
2022/06/13 12:01:25;;;;;;;7.43;1.50;;;;;;;23.85;42.96;102232.50;5001894;28;20061;-70
2022/06/13 12:04:01;;;;;;;5.45;1.30;;;;;;;23.65;41.46;102243.00;5007415;28;20046;-69
2022/06/13 12:06:33;;;;;;;3.85;1.48;;;;;;;23.24;42.64;102241.75;5007594;28;20037;-71
2022/06/13 12:09:24;;;;;;;8.05;2.28;;;;;;;23.20;42.84;102245.88;5007646;28;20034;-70
2022/06/13 12:11:55;;;;;;;4.75;1.55;;;;;;;22.44;42.04;102259.25;5003713;28;20042;-67